sensor_id;sensor_type;location;lat;lon;timestamp;pressure;altitude;pressure_sealevel;temperature;humidity
6090;BME280;3073;42.660;23.316;2022-10-31T00:00:13;95010.34;;;15.57;78.37
6090;BME280;3073;42.660;23.316;2022-10-31T00:02:40;95004.59;;;15.40;80.68
6090;BME280;3073;42.660;23.316;2022-10-31T00:05:07;94997.44;;;15.52;80.47
6090;BME280;3073;42.660;23.316;2022-10-31T00:07:34;94989.16;;;15.45;81.37
6090;BME280;3073;42.660;23.316;2022-10-31T00:10:04;95000.22;;;15.40;82.18
6090;BME280;3073;42.660;23.316;2022-10-31T00:12:31;94991.28;;;15.53;81.56
6090;BME280;3073;42.660;23.316;2022-10-31T00:14:58;94995.91;;;15.56;81.14
6090;BME280;3073;42.660;23.316;2022-10-31T00:17:25;94995.09;;;15.40;82.53
6090;BME280;3073;42.660;23.316;2022-10-31T00:19:52;94993.00;;;15.27;84.12
6090;BME280;3073;42.660;23.316;2022-10-31T00:22:19;94995.06;;;15.35;84.07
6090;BME280;3073;42.660;23.316;2022-10-31T00:24:46;94996.88;;;15.40;84.09
6090;BME280;3073;42.660;23.316;2022-10-31T00:27:14;94996.59;;;15.31;85.53
6090;BME280;3073;42.660;23.316;2022-10-31T00:29:41;94990.63;;;15.16;87.12
6090;BME280;3073;42.660;23.316;2022-10-31T00:32:08;94987.50;;;15.09;88.70
6090;BME280;3073;42.660;23.316;2022-10-31T00:34:35;94985.53;;;15.21;88.28
6090;BME280;3073;42.660;23.316;2022-10-31T00:37:01;94987.84;;;15.27;87.90
6090;BME280;3073;42.660;23.316;2022-10-31T00:39:28;94987.63;;;15.34;87.65
6090;BME280;3073;42.660;23.316;2022-10-31T00:41:55;94983.69;;;15.21;88.35
6090;BME280;3073;42.660;23.316;2022-10-31T00:44:23;94983.47;;;15.28;88.11
6090;BME280;3073;42.660;23.316;2022-10-31T00:46:50;94986.56;;;15.30;87.93
6090;BME280;3073;42.660;23.316;2022-10-31T00:49:17;94987.03;;;15.22;89.11
6090;BME280;3073;42.660;23.316;2022-10-31T00:51:44;94981.63;;;15.18;89.54
6090;BME280;3073;42.660;23.316;2022-10-31T00:54:10;94979.38;;;15.32;88.55
6090;BME280;3073;42.660;23.316;2022-10-31T00:56:37;94982.97;;;15.31;89.09
6090;BME280;3073;42.660;23.316;2022-10-31T00:59:04;94986.56;;;15.30;89.28
6090;BME280;3073;42.660;23.316;2022-10-31T01:01:32;94987.84;;;15.27;90.04
6090;BME280;3073;42.660;23.316;2022-10-31T01:04:00;94984.50;;;15.32;89.29
6090;BME280;3073;42.660;23.316;2022-10-31T01:06:27;94986.34;;;15.36;89.53
6090;BME280;3073;42.660;23.316;2022-10-31T01:08:54;94987.63;;;15.34;89.25
6090;BME280;3073;42.660;23.316;2022-10-31T01:11:22;94985.28;;;15.32;89.58
6090;BME280;3073;42.660;23.316;2022-10-31T01:13:51;94993.50;;;15.24;90.81
6090;BME280;3073;42.660;23.316;2022-10-31T01:16:21;94989.38;;;15.28;90.94
6090;BME280;3073;42.660;23.316;2022-10-31T01:18:50;94989.66;;;15.27;91.10
6090;BME280;3073;42.660;23.316;2022-10-31T01:21:18;94994.50;;;15.18;91.98
6090;BME280;3073;42.660;23.316;2022-10-31T01:23:46;95001.69;;;15.16;92.90
6090;BME280;3073;42.660;23.316;2022-10-31T01:26:15;95004.44;;;15.05;94.29
6090;BME280;3073;42.660;23.316;2022-10-31T01:28:47;95005.78;;;15.07;94.67
6090;BME280;3073;42.660;23.316;2022-10-31T01:31:16;94998.00;;;14.97;96.72
6090;BME280;3073;42.660;23.316;2022-10-31T01:33:45;95000.34;;;15.04;97.01
6090;BME280;3073;42.660;23.316;2022-10-31T01:36:16;95005.28;;;15.10;97.07
6090;BME280;3073;42.660;23.316;2022-10-31T01:38:43;95009.53;;;14.94;99.47
6090;BME280;3073;42.660;23.316;2022-10-31T01:41:12;95000.63;;;15.07;99.34
6090;BME280;3073;42.660;23.316;2022-10-31T01:43:49;95003.22;;;15.12;99.42
6090;BME280;3073;42.660;23.316;2022-10-31T01:46:17;95009.63;;;15.15;99.40
6090;BME280;3073;42.660;23.316;2022-10-31T01:48:47;95001.97;;;15.20;99.53
6090;BME280;3073;42.660;23.316;2022-10-31T01:51:17;95003.00;;;15.24;99.61
6090;BME280;3073;42.660;23.316;2022-10-31T01:53:46;95010.25;;;15.37;98.88
6090;BME280;3073;42.660;23.316;2022-10-31T01:56:14;95006.63;;;15.38;98.74
6090;BME280;3073;42.660;23.316;2022-10-31T01:58:44;95011.22;;;15.26;100.00
6090;BME280;3073;42.660;23.316;2022-10-31T02:01:13;95008.66;;;15.21;100.00
6090;BME280;3073;42.660;23.316;2022-10-31T02:03:41;95006.59;;;15.23;100.00
6090;BME280;3073;42.660;23.316;2022-10-31T02:06:15;95005.56;;;15.24;100.00
6090;BME280;3073;42.660;23.316;2022-10-31T02:08:46;95001.97;;;15.20;100.00
6090;BME280;3073;42.660;23.316;2022-10-31T02:11:14;94995.81;;;15.26;100.00
6090;BME280;3073;42.660;23.316;2022-10-31T02:13:42;95000.69;;;15.22;100.00
6090;BME280;3073;42.660;23.316;2022-10-31T02:16:09;94991.69;;;15.20;100.00
6090;BME280;3073;42.660;23.316;2022-10-31T02:18:36;94998.84;;;15.18;100.00
6090;BME280;3073;42.660;23.316;2022-10-31T02:21:10;94997.88;;;15.29;100.00
6090;BME280;3073;42.660;23.316;2022-10-31T02:24:11;94998.69;;;15.39;100.00
6090;BME280;3073;42.660;23.316;2022-10-31T02:26:51;95005.09;;;15.42;100.00
6090;BME280;3073;42.660;23.316;2022-10-31T02:29:53;95003.59;;;15.41;100.00
6090;BME280;3073;42.660;23.316;2022-10-31T02:32:27;95013.06;;;15.30;100.00
6090;BME280;3073;42.660;23.316;2022-10-31T02:34:59;95012.78;;;15.27;100.00
6090;BME280;3073;42.660;23.316;2022-10-31T02:37:35;95011.75;;;15.28;100.00
6090;BME280;3073;42.660;23.316;2022-10-31T02:40:10;95014.84;;;15.35;100.00
6090;BME280;3073;42.660;23.316;2022-10-31T02:42:47;95023.63;;;15.34;100.00
6090;BME280;3073;42.660;23.316;2022-10-31T02:45:22;95026.69;;;15.36;100.00
6090;BME280;3073;42.660;23.316;2022-10-31T02:47:55;95024.34;;;15.29;100.00
6090;BME280;3073;42.660;23.316;2022-10-31T02:50:27;95036.19;;;15.35;100.00
6090;BME280;3073;42.660;23.316;2022-10-31T02:52:55;95033.13;;;15.33;100.00
6090;BME280;3073;42.660;23.316;2022-10-31T02:55:57;95031.78;;;15.26;100.00
6090;BME280;3073;42.660;23.316;2022-10-31T02:58:27;95023.53;;;15.14;100.00
6090;BME280;3073;42.660;23.316;2022-10-31T03:01:14;95030.44;;;15.08;100.00
6090;BME280;3073;42.660;23.316;2022-10-31T03:03:57;95037.63;;;15.06;100.00
6090;BME280;3073;42.660;23.316;2022-10-31T03:06:30;95038.63;;;15.00;100.00
6090;BME280;3073;42.660;23.316;2022-10-31T03:09:03;95035.28;;;15.05;100.00
6090;BME280;3073;42.660;23.316;2022-10-31T03:11:39;95039.66;;;14.99;100.00
6090;BME280;3073;42.660;23.316;2022-10-31T03:14:12;95032.16;;;14.92;100.00
6090;BME280;3073;42.660;23.316;2022-10-31T03:16:45;95035.00;;;15.01;100.00
6090;BME280;3073;42.660;23.316;2022-10-31T03:19:17;95035.25;;;14.94;100.00
6090;BME280;3073;42.660;23.316;2022-10-31T03:21:48;95032.09;;;14.82;100.00
6090;BME280;3073;42.660;23.316;2022-10-31T03:24:18;95033.06;;;14.71;100.00
6090;BME280;3073;42.660;23.316;2022-10-31T03:26:48;95035.16;;;14.74;100.00
6090;BME280;3073;42.660;23.316;2022-10-31T03:29:19;95040.06;;;14.81;100.00
6090;BME280;3073;42.660;23.316;2022-10-31T03:31:50;95036.94;;;14.74;100.00
6090;BME280;3073;42.660;23.316;2022-10-31T03:34:20;95041.03;;;14.75;100.00
6090;BME280;3073;42.660;23.316;2022-10-31T03:36:48;95037.47;;;14.76;100.00
6090;BME280;3073;42.660;23.316;2022-10-31T03:39:19;95037.22;;;14.77;100.00
6090;BME280;3073;42.660;23.316;2022-10-31T03:41:51;95049.16;;;14.57;100.00
6090;BME280;3073;42.660;23.316;2022-10-31T03:44:21;95047.38;;;14.62;100.00
6090;BME280;3073;42.660;23.316;2022-10-31T03:46:50;95055.44;;;14.39;100.00
6090;BME280;3073;42.660;23.316;2022-10-31T03:49:17;95049.59;;;14.49;100.00
6090;BME280;3073;42.660;23.316;2022-10-31T03:51:47;95059.66;;;14.50;100.00
6090;BME280;3073;42.660;23.316;2022-10-31T03:54:24;95061.75;;;14.58;100.00
6090;BME280;3073;42.660;23.316;2022-10-31T03:56:55;95056.81;;;14.52;100.00
6090;BME280;3073;42.660;23.316;2022-10-31T03:59:26;95060.41;;;14.51;100.00
6090;BME280;3073;42.660;23.316;2022-10-31T04:02:00;95063.72;;;14.46;100.00
6090;BME280;3073;42.660;23.316;2022-10-31T04:04:29;95069.84;;;14.40;100.00
6090;BME280;3073;42.660;23.316;2022-10-31T04:06:59;95068.28;;;14.39;100.00
6090;BME280;3073;42.660;23.316;2022-10-31T04:09:28;95071.50;;;14.29;100.00
6090;BME280;3073;42.660;23.316;2022-10-31T04:12:00;95067.88;;;14.25;100.00
6090;BME280;3073;42.660;23.316;2022-10-31T04:14:32;95072.41;;;14.13;100.00
6090;BME280;3073;42.660;23.316;2022-10-31T04:17:01;95068.19;;;14.02;100.00
6090;BME280;3073;42.660;23.316;2022-10-31T04:19:30;95073.41;;;14.12;100.00
6090;BME280;3073;42.660;23.316;2022-10-31T04:21:58;95078.81;;;14.11;100.00
6090;BME280;3073;42.660;23.316;2022-10-31T04:24:25;95072.13;;;14.10;100.00
6090;BME280;3073;42.660;23.316;2022-10-31T04:26:51;95075.50;;;14.15;100.00
6090;BME280;3073;42.660;23.316;2022-10-31T04:29:20;95068.78;;;14.09;100.00
6090;BME280;3073;42.660;23.316;2022-10-31T04:31:47;95070.13;;;14.17;100.00
6090;BME280;3073;42.660;23.316;2022-10-31T04:34:15;95072.91;;;14.15;100.00
6090;BME280;3073;42.660;23.316;2022-10-31T04:36:42;95079.00;;;14.04;100.00
6090;BME280;3073;42.660;23.316;2022-10-31T04:39:11;95073.03;;;13.99;100.00
6090;BME280;3073;42.660;23.316;2022-10-31T04:41:38;95081.81;;;14.08;100.00
6090;BME280;3073;42.660;23.316;2022-10-31T04:44:05;95081.06;;;14.07;100.00
6090;BME280;3073;42.660;23.316;2022-10-31T04:46:32;95080.41;;;14.22;100.00
6090;BME280;3073;42.660;23.316;2022-10-31T04:48:59;95085.75;;;14.15;100.00
6090;BME280;3073;42.660;23.316;2022-10-31T04:51:25;95082.91;;;14.12;100.00
6090;BME280;3073;42.660;23.316;2022-10-31T04:53:52;95086.97;;;14.08;100.00
6090;BME280;3073;42.660;23.316;2022-10-31T04:56:21;95088.00;;;14.07;100.00
6090;BME280;3073;42.660;23.316;2022-10-31T04:58:48;95100.09;;;14.11;100.00
6090;BME280;3073;42.660;23.316;2022-10-31T05:01:17;95090.66;;;14.17;100.00
6090;BME280;3073;42.660;23.316;2022-10-31T05:03:44;95097.06;;;14.14;100.00
6090;BME280;3073;42.660;23.316;2022-10-31T05:06:11;95101.41;;;14.14;100.00
6090;BME280;3073;42.660;23.316;2022-10-31T05:08:38;95112.84;;;13.79;100.00
6090;BME280;3073;42.660;23.316;2022-10-31T05:11:04;95119.00;;;13.78;100.00
6090;BME280;3073;42.660;23.316;2022-10-31T05:13:33;95107.09;;;13.67;100.00
6090;BME280;3073;42.660;23.316;2022-10-31T05:16:00;95108.19;;;13.55;100.00
6090;BME280;3073;42.660;23.316;2022-10-31T05:18:28;95117.84;;;13.64;100.00
6090;BME280;3073;42.660;23.316;2022-10-31T05:20:55;95109.84;;;13.61;100.00
6090;BME280;3073;42.660;23.316;2022-10-31T05:23:22;95113.34;;;13.76;100.00
6090;BME280;3073;42.660;23.316;2022-10-31T05:25:49;95117.47;;;13.77;100.00
6090;BME280;3073;42.660;23.316;2022-10-31T05:28:16;95116.19;;;13.80;100.00
6090;BME280;3073;42.660;23.316;2022-10-31T05:30:44;95122.41;;;13.84;100.00
6090;BME280;3073;42.660;23.316;2022-10-31T05:33:11;95124.41;;;13.82;100.00
6090;BME280;3073;42.660;23.316;2022-10-31T05:35:38;95123.34;;;13.78;100.00
6090;BME280;3073;42.660;23.316;2022-10-31T05:38:04;95128.78;;;13.81;100.00
6090;BME280;3073;42.660;23.316;2022-10-31T05:40:32;95125.50;;;13.86;100.00
6090;BME280;3073;42.660;23.316;2022-10-31T05:42:59;95130.75;;;13.74;100.00
6090;BME280;3073;42.660;23.316;2022-10-31T05:45:26;95130.75;;;13.74;100.00
6090;BME280;3073;42.660;23.316;2022-10-31T05:47:56;95138.22;;;13.76;100.00
6090;BME280;3073;42.660;23.316;2022-10-31T05:50:24;95134.81;;;13.70;100.00
6090;BME280;3073;42.660;23.316;2022-10-31T05:52:55;95140.00;;;13.75;100.00
6090;BME280;3073;42.660;23.316;2022-10-31T05:55:23;95135.03;;;13.69;100.00
6090;BME280;3073;42.660;23.316;2022-10-31T05:57:51;95141.25;;;13.73;100.00
6090;BME280;3073;42.660;23.316;2022-10-31T06:00:18;95142.44;;;13.87;100.00
6090;BME280;3073;42.660;23.316;2022-10-31T06:02:45;95142.69;;;14.34;100.00
6090;BME280;3073;42.660;23.316;2022-10-31T06:05:14;95152.78;;;14.72;100.00
6090;BME280;3073;42.660;23.316;2022-10-31T06:07:42;95156.09;;;15.05;100.00
6090;BME280;3073;42.660;23.316;2022-10-31T06:10:09;95158.34;;;15.38;100.00
6090;BME280;3073;42.660;23.316;2022-10-31T06:12:36;95155.00;;;15.84;100.00
6090;BME280;3073;42.660;23.316;2022-10-31T06:15:04;95156.16;;;16.29;100.00
6090;BME280;3073;42.660;23.316;2022-10-31T06:17:32;95155.72;;;16.57;100.00
6090;BME280;3073;42.660;23.316;2022-10-31T06:19:59;95166.53;;;16.79;100.00
6090;BME280;3073;42.660;23.316;2022-10-31T06:22:27;95174.28;;;16.89;98.87
6090;BME280;3073;42.660;23.316;2022-10-31T06:24:54;95170.66;;;17.16;94.69
6090;BME280;3073;42.660;23.316;2022-10-31T06:27:21;95182.19;;;17.64;90.75
6090;BME280;3073;42.660;23.316;2022-10-31T06:29:48;95174.41;;;17.84;88.73
6090;BME280;3073;42.660;23.316;2022-10-31T06:32:15;95185.88;;;18.17;85.77
6090;BME280;3073;42.660;23.316;2022-10-31T06:34:42;95191.13;;;18.45;83.34
6090;BME280;3073;42.660;23.316;2022-10-31T06:37:11;95188.13;;;18.77;79.13
6090;BME280;3073;42.660;23.316;2022-10-31T06:39:39;95188.13;;;19.11;77.00
6090;BME280;3073;42.660;23.316;2022-10-31T06:42:06;95189.31;;;19.19;74.86
6090;BME280;3073;42.660;23.316;2022-10-31T06:44:33;95191.44;;;19.17;74.39
6090;BME280;3073;42.660;23.316;2022-10-31T06:47:00;95190.88;;;19.20;73.95
6090;BME280;3073;42.660;23.316;2022-10-31T06:49:27;95190.34;;;19.75;72.74
6090;BME280;3073;42.660;23.316;2022-10-31T06:51:54;95186.28;;;20.35;69.03
6090;BME280;3073;42.660;23.316;2022-10-31T06:54:21;95185.72;;;20.76;65.96
6090;BME280;3073;42.660;23.316;2022-10-31T06:56:49;95185.28;;;20.87;64.56
6090;BME280;3073;42.660;23.316;2022-10-31T06:59:16;95193.28;;;21.23;62.77
6090;BME280;3073;42.660;23.316;2022-10-31T07:01:43;95186.16;;;21.61;61.35
6090;BME280;3073;42.660;23.316;2022-10-31T07:04:10;95191.56;;;21.78;60.80
6090;BME280;3073;42.660;23.316;2022-10-31T07:06:37;95197.22;;;21.67;60.15
6090;BME280;3073;42.660;23.316;2022-10-31T07:09:04;95194.88;;;21.79;59.34
6090;BME280;3073;42.660;23.316;2022-10-31T07:11:31;95193.19;;;21.88;58.74
6090;BME280;3073;42.660;23.316;2022-10-31T07:13:59;95192.56;;;22.32;57.06
6090;BME280;3073;42.660;23.316;2022-10-31T07:16:26;95186.22;;;22.38;56.54
6090;BME280;3073;42.660;23.316;2022-10-31T07:18:53;95194.69;;;23.01;55.44
6090;BME280;3073;42.660;23.316;2022-10-31T07:21:20;95191.63;;;22.64;55.60
6090;BME280;3073;42.660;23.316;2022-10-31T07:23:48;95192.97;;;22.97;55.06
6090;BME280;3073;42.660;23.316;2022-10-31T07:26:15;95182.97;;;22.05;57.03
6090;BME280;3073;42.660;23.316;2022-10-31T07:28:42;95177.56;;;21.01;59.95
6090;BME280;3073;42.660;23.316;2022-10-31T07:31:11;95175.75;;;19.84;64.76
6090;BME280;3073;42.660;23.316;2022-10-31T07:33:38;95172.84;;;19.10;71.96
6090;BME280;3073;42.660;23.316;2022-10-31T07:36:05;95172.81;;;19.15;73.39
6090;BME280;3073;42.660;23.316;2022-10-31T07:38:33;95169.69;;;19.94;70.89
6090;BME280;3073;42.660;23.316;2022-10-31T07:40:59;95173.03;;;20.74;66.43
6090;BME280;3073;42.660;23.316;2022-10-31T07:43:26;95173.09;;;21.20;63.79
6090;BME280;3073;42.660;23.316;2022-10-31T07:45:53;95169.09;;;21.69;61.19
6090;BME280;3073;42.660;23.316;2022-10-31T07:48:21;95168.84;;;22.11;59.59
6090;BME280;3073;42.660;23.316;2022-10-31T07:50:48;95167.38;;;22.68;57.47
6090;BME280;3073;42.660;23.316;2022-10-31T07:53:15;95170.44;;;22.92;56.03
6090;BME280;3073;42.660;23.316;2022-10-31T07:55:42;95176.91;;;23.26;55.71
6090;BME280;3073;42.660;23.316;2022-10-31T07:58:11;95176.66;;;23.58;53.51
6090;BME280;3073;42.660;23.316;2022-10-31T08:00:40;95171.44;;;23.67;52.64
6090;BME280;3073;42.660;23.316;2022-10-31T08:03:09;95175.03;;;24.53;51.50
6090;BME280;3073;42.660;23.316;2022-10-31T08:05:38;95184.09;;;24.98;49.96
6090;BME280;3073;42.660;23.316;2022-10-31T08:08:07;95177.38;;;25.44;47.91
6090;BME280;3073;42.660;23.316;2022-10-31T08:10:35;95183.00;;;25.25;48.13
6090;BME280;3073;42.660;23.316;2022-10-31T08:13:03;95178.59;;;25.46;46.76
6090;BME280;3073;42.660;23.316;2022-10-31T08:15:31;95175.25;;;26.13;46.09
6090;BME280;3073;42.660;23.316;2022-10-31T08:17:59;95179.31;;;26.93;44.29
6090;BME280;3073;42.660;23.316;2022-10-31T08:20:27;95177.22;;;26.87;43.66
6090;BME280;3073;42.660;23.316;2022-10-31T08:22:59;95177.78;;;26.92;43.16
6090;BME280;3073;42.660;23.316;2022-10-31T08:25:29;95180.91;;;27.06;43.45
6090;BME280;3073;42.660;23.316;2022-10-31T08:27:57;95176.81;;;26.76;43.28
6090;BME280;3073;42.660;23.316;2022-10-31T08:30:26;95181.06;;;26.69;43.58
6090;BME280;3073;42.660;23.316;2022-10-31T08:33:00;95173.34;;;25.93;44.80
6090;BME280;3073;42.660;23.316;2022-10-31T08:35:27;95182.13;;;25.59;45.16
6090;BME280;3073;42.660;23.316;2022-10-31T08:37:55;95174.03;;;26.60;43.60
6090;BME280;3073;42.660;23.316;2022-10-31T08:40:24;95182.03;;;27.18;42.94
6090;BME280;3073;42.660;23.316;2022-10-31T08:42:59;95176.13;;;26.67;42.94
6090;BME280;3073;42.660;23.316;2022-10-31T08:45:26;95179.13;;;26.07;43.73
6090;BME280;3073;42.660;23.316;2022-10-31T08:47:56;95168.03;;;25.81;44.92
6090;BME280;3073;42.660;23.316;2022-10-31T08:50:24;95170.72;;;26.31;44.08
6090;BME280;3073;42.660;23.316;2022-10-31T08:52:51;95169.88;;;26.09;43.79
6090;BME280;3073;42.660;23.316;2022-10-31T08:55:18;95175.81;;;26.27;44.10
6090;BME280;3073;42.660;23.316;2022-10-31T08:57:47;95178.75;;;27.21;43.68
6090;BME280;3073;42.660;23.316;2022-10-31T09:00:14;95169.25;;;27.97;41.95
6090;BME280;3073;42.660;23.316;2022-10-31T09:02:41;95172.53;;;28.19;41.08
6090;BME280;3073;42.660;23.316;2022-10-31T09:05:08;95175.25;;;28.74;40.13
6090;BME280;3073;42.660;23.316;2022-10-31T09:07:37;95174.53;;;28.49;39.94
6090;BME280;3073;42.660;23.316;2022-10-31T09:10:05;95178.28;;;28.36;40.26
6090;BME280;3073;42.660;23.316;2022-10-31T09:12:32;95171.53;;;27.62;40.82
6090;BME280;3073;42.660;23.316;2022-10-31T09:15:00;95173.34;;;26.51;42.63
6090;BME280;3073;42.660;23.316;2022-10-31T09:17:27;95162.41;;;25.70;44.29
6090;BME280;3073;42.660;23.316;2022-10-31T09:19:54;95159.06;;;25.61;44.97
6090;BME280;3073;42.660;23.316;2022-10-31T09:22:22;95161.88;;;26.97;43.54
6090;BME280;3073;42.660;23.316;2022-10-31T09:24:49;95161.72;;;28.08;42.01
6090;BME280;3073;42.660;23.316;2022-10-31T09:27:16;95158.50;;;28.27;40.80
6090;BME280;3073;42.660;23.316;2022-10-31T09:29:43;95155.41;;;29.32;39.57
6090;BME280;3073;42.660;23.316;2022-10-31T09:32:11;95161.53;;;29.68;39.21
6090;BME280;3073;42.660;23.316;2022-10-31T09:34:38;95158.13;;;29.51;38.97
6090;BME280;3073;42.660;23.316;2022-10-31T09:37:05;95154.81;;;30.01;38.15
6090;BME280;3073;42.660;23.316;2022-10-31T09:39:35;95161.72;;;30.98;36.67
6090;BME280;3073;42.660;23.316;2022-10-31T09:42:47;95167.03;;;29.47;37.62
6090;BME280;3073;42.660;23.316;2022-10-31T09:45:22;95164.31;;;29.90;36.70
6090;BME280;3073;42.660;23.316;2022-10-31T09:48:02;95157.06;;;28.41;38.94
6090;BME280;3073;42.660;23.316;2022-10-31T09:50:39;95156.16;;;27.85;39.75
6090;BME280;3073;42.660;23.316;2022-10-31T09:53:10;95152.28;;;28.71;39.07
6090;BME280;3073;42.660;23.316;2022-10-31T09:55:44;95160.22;;;29.46;37.71
6090;BME280;3073;42.660;23.316;2022-10-31T09:58:15;95150.06;;;30.26;37.09
6090;BME280;3073;42.660;23.316;2022-10-31T10:00:44;95153.59;;;30.69;36.40
6090;BME280;3073;42.660;23.316;2022-10-31T10:03:22;95147.88;;;30.86;35.51
6090;BME280;3073;42.660;23.316;2022-10-31T10:05:56;95144.94;;;30.68;35.66
6090;BME280;3073;42.660;23.316;2022-10-31T10:08:32;95139.06;;;28.95;36.89
6090;BME280;3073;42.660;23.316;2022-10-31T10:11:16;95139.63;;;29.48;36.05
6090;BME280;3073;42.660;23.316;2022-10-31T10:13:57;95133.78;;;30.21;35.14
6090;BME280;3073;42.660;23.316;2022-10-31T10:16:40;95135.06;;;30.46;35.54
6090;BME280;3073;42.660;23.316;2022-10-31T10:19:22;95131.25;;;31.46;34.51
6090;BME280;3073;42.660;23.316;2022-10-31T10:21:58;95125.50;;;32.12;33.90
6090;BME280;3073;42.660;23.316;2022-10-31T10:25:02;95134.38;;;32.90;32.79
6090;BME280;3073;42.660;23.316;2022-10-31T10:27:41;95122.50;;;32.44;32.63
6090;BME280;3073;42.660;23.316;2022-10-31T10:30:15;95115.09;;;32.27;32.83
6090;BME280;3073;42.660;23.316;2022-10-31T10:32:45;95115.53;;;32.58;32.44
6090;BME280;3073;42.660;23.316;2022-10-31T10:35:22;95115.72;;;31.64;33.09
6090;BME280;3073;42.660;23.316;2022-10-31T10:37:51;95100.03;;;31.26;33.11
6090;BME280;3073;42.660;23.316;2022-10-31T10:40:21;95107.91;;;30.42;33.69
6090;BME280;3073;42.660;23.316;2022-10-31T10:42:56;95106.03;;;30.07;34.08
6090;BME280;3073;42.660;23.316;2022-10-31T10:45:45;95101.66;;;30.50;34.05
6090;BME280;3073;42.660;23.316;2022-10-31T10:48:38;95098.91;;;30.85;32.86
6090;BME280;3073;42.660;23.316;2022-10-31T10:51:20;95097.16;;;31.11;32.82
6090;BME280;3073;42.660;23.316;2022-10-31T10:54:01;95098.50;;;30.83;33.08
6090;BME280;3073;42.660;23.316;2022-10-31T10:56:40;95097.84;;;31.31;32.30
6090;BME280;3073;42.660;23.316;2022-10-31T10:59:12;95096.66;;;30.45;33.06
6090;BME280;3073;42.660;23.316;2022-10-31T11:01:40;95099.78;;;31.11;32.35
6090;BME280;3073;42.660;23.316;2022-10-31T11:04:27;95090.94;;;30.04;33.46
6090;BME280;3073;42.660;23.316;2022-10-31T11:07:01;95089.94;;;29.93;33.75
6090;BME280;3073;42.660;23.316;2022-10-31T11:09:28;95089.44;;;30.61;32.99
6090;BME280;3073;42.660;23.316;2022-10-31T11:11:56;95083.09;;;32.02;31.39
6090;BME280;3073;42.660;23.316;2022-10-31T11:14:23;95085.22;;;31.93;31.51
6090;BME280;3073;42.660;23.316;2022-10-31T11:16:54;95083.81;;;32.29;31.40
6090;BME280;3073;42.660;23.316;2022-10-31T11:19:24;95079.34;;;32.66;30.81
6090;BME280;3073;42.660;23.316;2022-10-31T11:21:52;95077.63;;;33.21;30.44
6090;BME280;3073;42.660;23.316;2022-10-31T11:24:22;95075.81;;;33.29;30.11
6090;BME280;3073;42.660;23.316;2022-10-31T11:26:51;95078.09;;;33.81;29.64
6090;BME280;3073;42.660;23.316;2022-10-31T11:29:21;95073.44;;;33.64;28.69
6090;BME280;3073;42.660;23.316;2022-10-31T11:31:52;95079.50;;;33.21;29.35
6090;BME280;3073;42.660;23.316;2022-10-31T11:34:29;95063.63;;;32.80;29.42
6090;BME280;3073;42.660;23.316;2022-10-31T11:37:01;95057.78;;;32.31;30.39
6090;BME280;3073;42.660;23.316;2022-10-31T11:39:31;95060.88;;;32.36;30.22
6090;BME280;3073;42.660;23.316;2022-10-31T11:42:00;95060.84;;;31.50;30.88
6090;BME280;3073;42.660;23.316;2022-10-31T11:44:30;95052.88;;;31.47;31.53
6090;BME280;3073;42.660;23.316;2022-10-31T11:47:00;95054.75;;;32.29;31.02
6090;BME280;3073;42.660;23.316;2022-10-31T11:49:30;95056.84;;;32.79;30.18
6090;BME280;3073;42.660;23.316;2022-10-31T11:52:00;95052.81;;;33.40;29.26
6090;BME280;3073;42.660;23.316;2022-10-31T11:54:31;95051.50;;;33.67;29.04
6090;BME280;3073;42.660;23.316;2022-10-31T11:56:59;95045.97;;;32.54;30.11
6090;BME280;3073;42.660;23.316;2022-10-31T11:59:28;95044.38;;;30.47;31.57
6090;BME280;3073;42.660;23.316;2022-10-31T12:01:56;95039.50;;;30.68;31.96
6090;BME280;3073;42.660;23.316;2022-10-31T12:04:29;95033.34;;;31.02;31.96
6090;BME280;3073;42.660;23.316;2022-10-31T12:06:57;95034.00;;;31.45;31.54
6090;BME280;3073;42.660;23.316;2022-10-31T12:09:27;95030.94;;;32.58;30.39
6090;BME280;3073;42.660;23.316;2022-10-31T12:12:34;95036.91;;;33.36;29.44
6090;BME280;3073;42.660;23.316;2022-10-31T12:15:25;95035.13;;;33.51;28.92
6090;BME280;3073;42.660;23.316;2022-10-31T12:18:03;95026.72;;;34.03;28.75
6090;BME280;3073;42.660;23.316;2022-10-31T12:20:40;95030.09;;;33.93;28.97
6090;BME280;3073;42.660;23.316;2022-10-31T12:23:17;95030.09;;;33.93;28.62
6090;BME280;3073;42.660;23.316;2022-10-31T12:25:50;95035.72;;;34.85;27.60
6090;BME280;3073;42.660;23.316;2022-10-31T12:28:36;95036.66;;;34.21;28.26
6090;BME280;3073;42.660;23.316;2022-10-31T12:31:14;95030.19;;;32.58;29.25
6090;BME280;3073;42.660;23.316;2022-10-31T12:33:52;95033.03;;;30.43;31.98
6090;BME280;3073;42.660;23.316;2022-10-31T12:36:36;95027.69;;;30.81;31.29
6090;BME280;3073;42.660;23.316;2022-10-31T12:39:17;95024.84;;;30.48;32.08
6090;BME280;3073;42.660;23.316;2022-10-31T12:41:52;95027.19;;;31.18;31.67
6090;BME280;3073;42.660;23.316;2022-10-31T12:44:48;95029.53;;;30.58;32.62
6090;BME280;3073;42.660;23.316;2022-10-31T12:47:43;95027.16;;;28.79;33.82
6090;BME280;3073;42.660;23.316;2022-10-31T12:50:25;95016.88;;;28.89;34.49
6090;BME280;3073;42.660;23.316;2022-10-31T12:53:03;95022.13;;;29.52;33.61
6090;BME280;3073;42.660;23.316;2022-10-31T12:55:47;95023.75;;;29.41;33.48
6090;BME280;3073;42.660;23.316;2022-10-31T12:58:22;95025.03;;;30.20;32.89
6090;BME280;3073;42.660;23.316;2022-10-31T13:01:06;95025.19;;;30.46;32.28
6090;BME280;3073;42.660;23.316;2022-10-31T13:03:42;95026.41;;;29.25;33.54
6090;BME280;3073;42.660;23.316;2022-10-31T13:06:14;95018.56;;;28.38;35.10
6090;BME280;3073;42.660;23.316;2022-10-31T13:08:47;95023.53;;;27.76;35.90
6090;BME280;3073;42.660;23.316;2022-10-31T13:11:16;95022.66;;;29.10;34.70
6090;BME280;3073;42.660;23.316;2022-10-31T13:13:56;95019.56;;;30.09;33.64
6090;BME280;3073;42.660;23.316;2022-10-31T13:16:29;95024.81;;;30.67;32.87
6090;BME280;3073;42.660;23.316;2022-10-31T13:19:00;95028.59;;;29.07;33.92
6090;BME280;3073;42.660;23.316;2022-10-31T13:21:32;95023.56;;;29.02;34.49
6090;BME280;3073;42.660;23.316;2022-10-31T13:24:04;95016.78;;;29.33;33.62
6090;BME280;3073;42.660;23.316;2022-10-31T13:26:38;95020.13;;;30.38;33.07